sensor_id;sensor_type;location;lat;lon;timestamp;P1;durP1;ratioP1;P2;durP2;ratioP2
72053;SDS011;59918;51.280;7.950;2022-08-01T00:02:05;28.08;;;20.02;;
72053;SDS011;59918;51.280;7.950;2022-08-01T00:04:30;30.98;;;22.63;;
72053;SDS011;59918;51.280;7.950;2022-08-01T00:06:58;35.15;;;23.83;;
72053;SDS011;59918;51.280;7.950;2022-08-01T00:09:24;32.75;;;23.60;;
72053;SDS011;59918;51.280;7.950;2022-08-01T00:11:51;26.60;;;21.15;;
72053;SDS011;59918;51.280;7.950;2022-08-01T00:14:16;26.17;;;20.20;;
72053;SDS011;59918;51.280;7.950;2022-08-01T00:16:42;31.70;;;22.45;;
72053;SDS011;59918;51.280;7.950;2022-08-01T00:19:07;24.50;;;18.13;;
72053;SDS011;59918;51.280;7.950;2022-08-01T00:21:32;21.17;;;16.92;;
72053;SDS011;59918;51.280;7.950;2022-08-01T00:23:57;18.75;;;14.65;;
72053;SDS011;59918;51.280;7.950;2022-08-01T00:26:23;15.10;;;13.50;;
72053;SDS011;59918;51.280;7.950;2022-08-01T00:28:48;14.38;;;12.85;;
72053;SDS011;59918;51.280;7.950;2022-08-01T00:31:13;15.73;;;13.25;;
72053;SDS011;59918;51.280;7.950;2022-08-01T00:33:38;16.35;;;13.07;;
72053;SDS011;59918;51.280;7.950;2022-08-01T00:36:04;15.65;;;14.02;;
72053;SDS011;59918;51.280;7.950;2022-08-01T00:38:29;15.95;;;14.18;;
72053;SDS011;59918;51.280;7.950;2022-08-01T00:40:55;16.25;;;14.43;;
72053;SDS011;59918;51.280;7.950;2022-08-01T00:43:20;18.60;;;14.68;;
72053;SDS011;59918;51.280;7.950;2022-08-01T00:45:45;17.23;;;14.82;;
72053;SDS011;59918;51.280;7.950;2022-08-01T00:48:11;17.35;;;14.57;;
72053;SDS011;59918;51.280;7.950;2022-08-01T00:50:36;17.02;;;14.02;;
72053;SDS011;59918;51.280;7.950;2022-08-01T00:53:03;17.08;;;13.57;;
72053;SDS011;59918;51.280;7.950;2022-08-01T00:55:29;24.55;;;14.77;;
72053;SDS011;59918;51.280;7.950;2022-08-01T00:57:56;19.83;;;13.73;;
72053;SDS011;59918;51.280;7.950;2022-08-01T01:00:21;15.18;;;13.45;;
72053;SDS011;59918;51.280;7.950;2022-08-01T01:02:47;13.52;;;11.88;;
72053;SDS011;59918;51.280;7.950;2022-08-01T01:05:12;14.07;;;12.57;;
72053;SDS011;59918;51.280;7.950;2022-08-01T01:10:28;14.20;;;12.52;;
72053;SDS011;59918;51.280;7.950;2022-08-01T01:15:45;16.67;;;12.60;;
72053;SDS011;59918;51.280;7.950;2022-08-01T01:18:17;14.38;;;12.82;;
72053;SDS011;59918;51.280;7.950;2022-08-01T01:20:51;16.00;;;11.65;;
72053;SDS011;59918;51.280;7.950;2022-08-01T01:29:32;15.27;;;12.93;;
72053;SDS011;59918;51.280;7.950;2022-08-01T01:32:20;13.85;;;11.77;;
72053;SDS011;59918;51.280;7.950;2022-08-01T01:34:50;13.50;;;11.73;;
72053;SDS011;59918;51.280;7.950;2022-08-01T01:37:19;13.85;;;10.52;;
72053;SDS011;59918;51.280;7.950;2022-08-01T01:39:48;12.70;;;11.32;;
72053;SDS011;59918;51.280;7.950;2022-08-01T01:42:18;14.13;;;10.82;;
72053;SDS011;59918;51.280;7.950;2022-08-01T01:44:47;9.77;;;8.32;;
72053;SDS011;59918;51.280;7.950;2022-08-01T01:47:14;14.20;;;10.38;;
72053;SDS011;59918;51.280;7.950;2022-08-01T01:49:41;8.00;;;7.25;;
72053;SDS011;59918;51.280;7.950;2022-08-01T01:52:11;10.25;;;7.85;;
72053;SDS011;59918;51.280;7.950;2022-08-01T01:54:39;14.35;;;8.35;;
72053;SDS011;59918;51.280;7.950;2022-08-01T01:57:07;10.85;;;8.50;;
72053;SDS011;59918;51.280;7.950;2022-08-01T01:59:35;10.93;;;8.50;;
72053;SDS011;59918;51.280;7.950;2022-08-01T02:02:04;14.45;;;10.50;;
72053;SDS011;59918;51.280;7.950;2022-08-01T02:04:30;14.35;;;11.30;;
72053;SDS011;59918;51.280;7.950;2022-08-01T02:06:56;15.20;;;10.38;;
72053;SDS011;59918;51.280;7.950;2022-08-01T02:09:23;11.45;;;9.95;;
72053;SDS011;59918;51.280;7.950;2022-08-01T02:11:51;17.15;;;11.70;;
72053;SDS011;59918;51.280;7.950;2022-08-01T02:14:18;15.68;;;11.77;;
72053;SDS011;59918;51.280;7.950;2022-08-01T02:16:47;18.10;;;12.30;;
72053;SDS011;59918;51.280;7.950;2022-08-01T02:19:14;19.40;;;12.73;;
72053;SDS011;59918;51.280;7.950;2022-08-01T02:22:00;23.08;;;14.38;;
72053;SDS011;59918;51.280;7.950;2022-08-01T02:27:06;31.52;;;18.17;;
72053;SDS011;59918;51.280;7.950;2022-08-01T02:29:39;30.38;;;18.00;;
72053;SDS011;59918;51.280;7.950;2022-08-01T02:32:07;33.50;;;19.58;;
72053;SDS011;59918;51.280;7.950;2022-08-01T02:34:36;32.60;;;20.85;;
72053;SDS011;59918;51.280;7.950;2022-08-01T02:37:03;34.55;;;20.10;;
72053;SDS011;59918;51.280;7.950;2022-08-01T02:39:29;34.90;;;20.25;;
72053;SDS011;59918;51.280;7.950;2022-08-01T02:41:57;33.72;;;19.75;;
72053;SDS011;59918;51.280;7.950;2022-08-01T02:44:29;42.13;;;22.38;;
72053;SDS011;59918;51.280;7.950;2022-08-01T02:47:00;35.70;;;22.13;;
72053;SDS011;59918;51.280;7.950;2022-08-01T02:49:26;40.33;;;22.55;;
72053;SDS011;59918;51.280;7.950;2022-08-01T02:51:56;36.75;;;22.08;;
72053;SDS011;59918;51.280;7.950;2022-08-01T02:54:23;34.10;;;21.05;;
72053;SDS011;59918;51.280;7.950;2022-08-01T02:56:51;44.90;;;23.52;;
72053;SDS011;59918;51.280;7.950;2022-08-01T02:59:18;50.05;;;25.40;;
72053;SDS011;59918;51.280;7.950;2022-08-01T03:01:44;37.78;;;22.70;;
72053;SDS011;59918;51.280;7.950;2022-08-01T03:04:11;38.15;;;22.88;;
72053;SDS011;59918;51.280;7.950;2022-08-01T03:06:39;44.53;;;25.15;;
72053;SDS011;59918;51.280;7.950;2022-08-01T03:09:05;51.00;;;25.42;;
72053;SDS011;59918;51.280;7.950;2022-08-01T03:11:32;45.63;;;25.45;;
72053;SDS011;59918;51.280;7.950;2022-08-01T03:13:59;43.15;;;25.55;;
72053;SDS011;59918;51.280;7.950;2022-08-01T03:16:27;32.08;;;19.58;;
72053;SDS011;59918;51.280;7.950;2022-08-01T03:18:53;36.30;;;20.58;;
72053;SDS011;59918;51.280;7.950;2022-08-01T03:21:21;32.65;;;21.50;;
72053;SDS011;59918;51.280;7.950;2022-08-01T03:23:49;29.55;;;18.67;;
72053;SDS011;59918;51.280;7.950;2022-08-01T03:26:16;25.15;;;17.67;;
72053;SDS011;59918;51.280;7.950;2022-08-01T03:28:43;21.67;;;15.95;;
72053;SDS011;59918;51.280;7.950;2022-08-01T03:31:10;23.65;;;15.98;;
72053;SDS011;59918;51.280;7.950;2022-08-01T03:33:38;29.13;;;18.25;;
72053;SDS011;59918;51.280;7.950;2022-08-01T03:36:04;22.67;;;16.67;;
72053;SDS011;59918;51.280;7.950;2022-08-01T03:38:34;27.00;;;19.85;;
72053;SDS011;59918;51.280;7.950;2022-08-01T03:41:11;28.58;;;19.13;;
72053;SDS011;59918;51.280;7.950;2022-08-01T03:43:40;28.88;;;18.73;;
72053;SDS011;59918;51.280;7.950;2022-08-01T03:46:12;29.90;;;19.33;;
72053;SDS011;59918;51.280;7.950;2022-08-01T03:48:47;28.30;;;19.42;;
72053;SDS011;59918;51.280;7.950;2022-08-01T03:51:13;38.08;;;22.15;;
72053;SDS011;59918;51.280;7.950;2022-08-01T03:53:39;35.13;;;21.23;;
72053;SDS011;59918;51.280;7.950;2022-08-01T03:56:07;38.40;;;22.65;;
72053;SDS011;59918;51.280;7.950;2022-08-01T03:58:33;43.72;;;26.42;;
72053;SDS011;59918;51.280;7.950;2022-08-01T04:00:58;46.90;;;29.15;;
72053;SDS011;59918;51.280;7.950;2022-08-01T04:03:24;43.92;;;25.95;;
72053;SDS011;59918;51.280;7.950;2022-08-01T04:05:50;50.92;;;26.80;;
72053;SDS011;59918;51.280;7.950;2022-08-01T04:08:15;56.53;;;31.38;;
72053;SDS011;59918;51.280;7.950;2022-08-01T04:10:40;57.40;;;32.67;;
72053;SDS011;59918;51.280;7.950;2022-08-01T04:13:06;58.95;;;31.30;;
72053;SDS011;59918;51.280;7.950;2022-08-01T04:15:31;47.60;;;27.65;;
72053;SDS011;59918;51.280;7.950;2022-08-01T04:17:56;54.00;;;29.92;;
72053;SDS011;59918;51.280;7.950;2022-08-01T04:20:21;50.58;;;28.67;;
72053;SDS011;59918;51.280;7.950;2022-08-01T04:22:47;57.53;;;30.95;;
72053;SDS011;59918;51.280;7.950;2022-08-01T04:25:14;51.53;;;30.10;;
72053;SDS011;59918;51.280;7.950;2022-08-01T04:27:42;60.00;;;31.17;;
72053;SDS011;59918;51.280;7.950;2022-08-01T04:30:11;58.47;;;32.28;;
72053;SDS011;59918;51.280;7.950;2022-08-01T04:32:57;61.92;;;32.05;;
72053;SDS011;59918;51.280;7.950;2022-08-01T04:35:25;58.20;;;31.45;;
72053;SDS011;59918;51.280;7.950;2022-08-01T04:37:52;49.03;;;29.70;;
72053;SDS011;59918;51.280;7.950;2022-08-01T04:40:18;56.53;;;30.10;;
72053;SDS011;59918;51.280;7.950;2022-08-01T04:42:44;52.55;;;28.10;;
72053;SDS011;59918;51.280;7.950;2022-08-01T04:45:10;47.25;;;28.10;;
72053;SDS011;59918;51.280;7.950;2022-08-01T04:47:35;52.17;;;28.48;;
72053;SDS011;59918;51.280;7.950;2022-08-01T04:50:03;47.72;;;25.77;;
72053;SDS011;59918;51.280;7.950;2022-08-01T04:52:34;52.17;;;27.20;;
72053;SDS011;59918;51.280;7.950;2022-08-01T04:55:00;48.70;;;26.73;;
72053;SDS011;59918;51.280;7.950;2022-08-01T04:57:26;51.45;;;28.27;;
72053;SDS011;59918;51.280;7.950;2022-08-01T04:59:51;45.28;;;26.20;;
72053;SDS011;59918;51.280;7.950;2022-08-01T05:02:17;56.28;;;28.42;;
72053;SDS011;59918;51.280;7.950;2022-08-01T05:04:43;49.45;;;26.73;;
72053;SDS011;59918;51.280;7.950;2022-08-01T05:07:10;53.22;;;28.17;;
72053;SDS011;59918;51.280;7.950;2022-08-01T05:09:37;53.72;;;27.63;;
72053;SDS011;59918;51.280;7.950;2022-08-01T05:12:03;52.58;;;28.73;;
72053;SDS011;59918;51.280;7.950;2022-08-01T05:14:30;60.47;;;30.23;;
72053;SDS011;59918;51.280;7.950;2022-08-01T05:16:55;56.63;;;29.10;;
72053;SDS011;59918;51.280;7.950;2022-08-01T05:19:20;54.90;;;27.45;;
72053;SDS011;59918;51.280;7.950;2022-08-01T05:21:46;41.90;;;25.63;;
72053;SDS011;59918;51.280;7.950;2022-08-01T05:24:11;48.72;;;27.77;;
72053;SDS011;59918;51.280;7.950;2022-08-01T05:26:36;44.70;;;26.90;;
72053;SDS011;59918;51.280;7.950;2022-08-01T05:29:01;47.97;;;27.75;;
72053;SDS011;59918;51.280;7.950;2022-08-01T05:31:27;44.28;;;27.20;;
72053;SDS011;59918;51.280;7.950;2022-08-01T05:33:53;49.58;;;28.30;;
72053;SDS011;59918;51.280;7.950;2022-08-01T05:36:18;42.25;;;26.08;;
72053;SDS011;59918;51.280;7.950;2022-08-01T05:38:43;38.35;;;24.90;;
72053;SDS011;59918;51.280;7.950;2022-08-01T05:41:12;44.17;;;26.30;;
72053;SDS011;59918;51.280;7.950;2022-08-01T05:43:37;43.97;;;27.75;;
72053;SDS011;59918;51.280;7.950;2022-08-01T05:46:02;40.78;;;26.15;;
72053;SDS011;59918;51.280;7.950;2022-08-01T05:48:28;39.05;;;25.60;;
72053;SDS011;59918;51.280;7.950;2022-08-01T05:50:53;37.20;;;24.60;;
72053;SDS011;59918;51.280;7.950;2022-08-01T05:53:19;44.30;;;26.13;;
72053;SDS011;59918;51.280;7.950;2022-08-01T05:55:44;34.78;;;22.65;;
72053;SDS011;59918;51.280;7.950;2022-08-01T05:58:12;31.40;;;22.90;;
72053;SDS011;59918;51.280;7.950;2022-08-01T06:00:37;32.28;;;23.52;;
72053;SDS011;59918;51.280;7.950;2022-08-01T06:03:02;37.13;;;23.15;;
72053;SDS011;59918;51.280;7.950;2022-08-01T06:05:27;35.30;;;23.17;;
72053;SDS011;59918;51.280;7.950;2022-08-01T06:07:53;33.42;;;23.77;;
72053;SDS011;59918;51.280;7.950;2022-08-01T06:10:21;36.72;;;24.02;;
72053;SDS011;59918;51.280;7.950;2022-08-01T06:12:46;32.45;;;22.92;;
72053;SDS011;59918;51.280;7.950;2022-08-01T06:15:11;34.10;;;22.63;;
72053;SDS011;59918;51.280;7.950;2022-08-01T06:17:37;29.63;;;22.35;;
72053;SDS011;59918;51.280;7.950;2022-08-01T06:20:04;25.42;;;20.80;;
72053;SDS011;59918;51.280;7.950;2022-08-01T06:22:30;28.08;;;20.52;;
72053;SDS011;59918;51.280;7.950;2022-08-01T06:24:55;28.25;;;19.98;;
72053;SDS011;59918;51.280;7.950;2022-08-01T06:27:21;31.58;;;20.33;;
72053;SDS011;59918;51.280;7.950;2022-08-01T06:29:46;28.55;;;20.73;;
72053;SDS011;59918;51.280;7.950;2022-08-01T06:32:11;25.52;;;19.35;;
72053;SDS011;59918;51.280;7.950;2022-08-01T06:34:36;22.33;;;18.63;;
72053;SDS011;59918;51.280;7.950;2022-08-01T06:37:02;19.25;;;16.17;;
72053;SDS011;59918;51.280;7.950;2022-08-01T06:39:27;20.15;;;17.00;;
72053;SDS011;59918;51.280;7.950;2022-08-01T06:41:52;20.10;;;16.88;;
72053;SDS011;59918;51.280;7.950;2022-08-01T06:44:17;22.30;;;16.33;;
72053;SDS011;59918;51.280;7.950;2022-08-01T06:46:43;21.40;;;17.00;;
72053;SDS011;59918;51.280;7.950;2022-08-01T06:49:08;19.65;;;17.00;;
72053;SDS011;59918;51.280;7.950;2022-08-01T06:51:33;19.27;;;14.95;;
72053;SDS011;59918;51.280;7.950;2022-08-01T06:53:59;21.33;;;16.75;;
72053;SDS011;59918;51.280;7.950;2022-08-01T06:56:24;20.58;;;16.20;;
72053;SDS011;59918;51.280;7.950;2022-08-01T06:58:50;21.38;;;16.45;;
72053;SDS011;59918;51.280;7.950;2022-08-01T07:01:15;25.95;;;16.60;;
72053;SDS011;59918;51.280;7.950;2022-08-01T07:03:40;17.38;;;14.82;;
72053;SDS011;59918;51.280;7.950;2022-08-01T07:06:06;17.90;;;15.52;;
72053;SDS011;59918;51.280;7.950;2022-08-01T07:08:31;18.58;;;15.85;;
72053;SDS011;59918;51.280;7.950;2022-08-01T07:10:56;20.90;;;16.42;;
72053;SDS011;59918;51.280;7.950;2022-08-01T07:13:21;20.55;;;16.90;;
72053;SDS011;59918;51.280;7.950;2022-08-01T07:15:47;19.02;;;16.15;;
72053;SDS011;59918;51.280;7.950;2022-08-01T07:18:12;20.83;;;16.10;;
72053;SDS011;59918;51.280;7.950;2022-08-01T07:20:37;17.58;;;14.73;;
72053;SDS011;59918;51.280;7.950;2022-08-01T07:23:03;18.33;;;14.50;;
72053;SDS011;59918;51.280;7.950;2022-08-01T07:25:29;18.52;;;15.55;;
72053;SDS011;59918;51.280;7.950;2022-08-01T07:27:54;17.00;;;15.20;;
72053;SDS011;59918;51.280;7.950;2022-08-01T07:30:19;20.60;;;16.55;;
72053;SDS011;59918;51.280;7.950;2022-08-01T07:32:45;20.58;;;16.25;;
72053;SDS011;59918;51.280;7.950;2022-08-01T07:35:10;20.45;;;16.58;;
72053;SDS011;59918;51.280;7.950;2022-08-01T07:37:35;19.17;;;17.13;;
72053;SDS011;59918;51.280;7.950;2022-08-01T07:40:00;18.63;;;16.45;;
72053;SDS011;59918;51.280;7.950;2022-08-01T07:42:26;19.23;;;15.98;;
72053;SDS011;59918;51.280;7.950;2022-08-01T07:44:51;17.23;;;15.27;;
72053;SDS011;59918;51.280;7.950;2022-08-01T07:47:22;19.67;;;17.10;;
72053;SDS011;59918;51.280;7.950;2022-08-01T07:49:48;19.23;;;16.38;;
72053;SDS011;59918;51.280;7.950;2022-08-01T07:52:14;22.30;;;16.33;;
72053;SDS011;59918;51.280;7.950;2022-08-01T15:22:10;1.25;;;0.65;;
72053;SDS011;59918;51.280;7.950;2022-08-01T15:24:35;1.95;;;0.60;;
72053;SDS011;59918;51.280;7.950;2022-08-01T15:27:01;1.38;;;0.60;;
72053;SDS011;59918;51.280;7.950;2022-08-01T15:29:26;0.85;;;0.75;;
72053;SDS011;59918;51.280;7.950;2022-08-01T15:31:51;0.80;;;0.80;;
72053;SDS011;59918;51.280;7.950;2022-08-01T15:34:16;0.60;;;0.60;;
72053;SDS011;59918;51.280;7.950;2022-08-01T15:36:42;2.05;;;0.80;;
72053;SDS011;59918;51.280;7.950;2022-08-01T15:39:07;1.02;;;0.50;;
72053;SDS011;59918;51.280;7.950;2022-08-01T15:41:32;1.58;;;0.90;;
72053;SDS011;59918;51.280;7.950;2022-08-01T15:43:58;0.95;;;0.95;;
72053;SDS011;59918;51.280;7.950;2022-08-01T15:46:23;2.70;;;0.70;;
72053;SDS011;59918;51.280;7.950;2022-08-01T15:48:48;0.80;;;0.80;;
72053;SDS011;59918;51.280;7.950;2022-08-01T15:51:15;0.63;;;0.63;;
72053;SDS011;59918;51.280;7.950;2022-08-01T15:53:40;0.98;;;0.70;;
72053;SDS011;59918;51.280;7.950;2022-08-01T15:56:06;0.88;;;0.85;;
72053;SDS011;59918;51.280;7.950;2022-08-01T15:58:31;0.68;;;0.60;;
72053;SDS011;59918;51.280;7.950;2022-08-01T16:00:56;0.88;;;0.80;;
72053;SDS011;59918;51.280;7.950;2022-08-01T16:03:21;1.30;;;0.70;;
72053;SDS011;59918;51.280;7.950;2022-08-01T16:05:47;2.20;;;0.90;;
72053;SDS011;59918;51.280;7.950;2022-08-01T16:08:12;0.95;;;0.77;;
72053;SDS011;59918;51.280;7.950;2022-08-01T16:10:38;1.95;;;1.08;;
72053;SDS011;59918;51.280;7.950;2022-08-01T16:13:03;1.48;;;0.77;;
72053;SDS011;59918;51.280;7.950;2022-08-01T16:15:28;0.90;;;0.90;;
72053;SDS011;59918;51.280;7.950;2022-08-01T16:17:54;1.92;;;1.00;;
72053;SDS011;59918;51.280;7.950;2022-08-01T16:20:19;0.87;;;0.87;;
72053;SDS011;59918;51.280;7.950;2022-08-01T16:22:44;0.90;;;0.90;;
72053;SDS011;59918;51.280;7.950;2022-08-01T16:25:09;0.95;;;0.90;;
72053;SDS011;59918;51.280;7.950;2022-08-01T16:27:35;2.60;;;1.10;;
72053;SDS011;59918;51.280;7.950;2022-08-01T16:30:00;1.27;;;0.90;;
72053;SDS011;59918;51.280;7.950;2022-08-01T16:32:25;1.50;;;1.10;;
72053;SDS011;59918;51.280;7.950;2022-08-01T16:34:50;0.80;;;0.80;;
72053;SDS011;59918;51.280;7.950;2022-08-01T16:37:16;0.95;;;0.80;;
72053;SDS011;59918;51.280;7.950;2022-08-01T16:39:41;2.33;;;0.95;;
72053;SDS011;59918;51.280;7.950;2022-08-01T16:42:06;1.00;;;0.90;;
72053;SDS011;59918;51.280;7.950;2022-08-01T16:44:31;1.30;;;1.30;;
72053;SDS011;59918;51.280;7.950;2022-08-01T16:46:57;1.17;;;1.03;;
72053;SDS011;59918;51.280;7.950;2022-08-01T16:49:22;1.08;;;1.08;;
72053;SDS011;59918;51.280;7.950;2022-08-01T16:51:47;0.95;;;0.93;;
72053;SDS011;59918;51.280;7.950;2022-08-01T16:54:13;1.83;;;0.90;;
72053;SDS011;59918;51.280;7.950;2022-08-01T16:56:38;2.00;;;1.90;;
72053;SDS011;59918;51.280;7.950;2022-08-01T16:59:03;3.05;;;1.30;;
72053;SDS011;59918;51.280;7.950;2022-08-01T17:01:28;1.20;;;1.17;;
72053;SDS011;59918;51.280;7.950;2022-08-01T17:03:54;2.03;;;1.92;;
72053;SDS011;59918;51.280;7.950;2022-08-01T17:06:19;2.30;;;1.65;;
72053;SDS011;59918;51.280;7.950;2022-08-01T17:08:45;1.10;;;1.10;;
72053;SDS011;59918;51.280;7.950;2022-08-01T17:11:10;1.70;;;1.20;;
72053;SDS011;59918;51.280;7.950;2022-08-01T17:13:35;1.42;;;1.10;;
72053;SDS011;59918;51.280;7.950;2022-08-01T17:16:01;1.77;;;1.67;;
72053;SDS011;59918;51.280;7.950;2022-08-01T17:18:26;2.17;;;1.98;;
72053;SDS011;59918;51.280;7.950;2022-08-01T17:20:51;2.40;;;2.20;;
72053;SDS011;59918;51.280;7.950;2022-08-01T17:23:16;2.45;;;2.00;;
72053;SDS011;59918;51.280;7.950;2022-08-01T17:25:42;2.42;;;1.85;;
72053;SDS011;59918;51.280;7.950;2022-08-01T17:28:07;1.25;;;1.20;;
72053;SDS011;59918;51.280;7.950;2022-08-01T17:30:32;1.35;;;1.25;;
72053;SDS011;59918;51.280;7.950;2022-08-01T17:32:58;2.53;;;1.30;;
72053;SDS011;59918;51.280;7.950;2022-08-01T17:35:23;1.40;;;1.30;;
72053;SDS011;59918;51.280;7.950;2022-08-01T17:37:49;2.95;;;1.55;;
72053;SDS011;59918;51.280;7.950;2022-08-01T17:40:14;1.90;;;1.30;;
72053;SDS011;59918;51.280;7.950;2022-08-01T17:42:40;1.73;;;1.63;;
72053;SDS011;59918;51.280;7.950;2022-08-01T17:45:06;1.77;;;1.67;;
72053;SDS011;59918;51.280;7.950;2022-08-01T17:47:33;1.63;;;1.52;;
72053;SDS011;59918;51.280;7.950;2022-08-01T17:49:58;2.33;;;1.27;;
72053;SDS011;59918;51.280;7.950;2022-08-01T17:52:26;1.50;;;1.40;;
72053;SDS011;59918;51.280;7.950;2022-08-01T17:54:51;1.50;;;1.40;;
72053;SDS011;59918;51.280;7.950;2022-08-01T17:57:16;1.88;;;1.77;;
72053;SDS011;59918;51.280;7.950;2022-08-01T17:59:42;2.17;;;1.77;;
72053;SDS011;59918;51.280;7.950;2022-08-01T18:02:07;1.45;;;1.38;;
72053;SDS011;59918;51.280;7.950;2022-08-01T18:04:32;2.40;;;1.50;;
72053;SDS011;59918;51.280;7.950;2022-08-01T18:06:58;1.70;;;1.60;;
72053;SDS011;59918;51.280;7.950;2022-08-01T18:09:23;3.22;;;1.20;;
72053;SDS011;59918;51.280;7.950;2022-08-01T18:11:48;1.35;;;1.30;;
72053;SDS011;59918;51.280;7.950;2022-08-01T18:14:13;2.33;;;1.60;;
72053;SDS011;59918;51.280;7.950;2022-08-01T18:16:39;1.70;;;1.55;;
72053;SDS011;59918;51.280;7.950;2022-08-01T18:19:04;2.40;;;1.30;;
72053;SDS011;59918;51.280;7.950;2022-08-01T18:21:31;2.25;;;1.77;;
72053;SDS011;59918;51.280;7.950;2022-08-01T18:23:57;2.17;;;2.00;;
72053;SDS011;59918;51.280;7.950;2022-08-01T18:26:22;2.55;;;2.00;;
72053;SDS011;59918;51.280;7.950;2022-08-01T18:31:22;2.13;;;1.92;;
72053;SDS011;59918;51.280;7.950;2022-08-01T18:33:47;1.98;;;1.88;;
72053;SDS011;59918;51.280;7.950;2022-08-01T18:36:13;4.40;;;1.70;;
72053;SDS011;59918;51.280;7.950;2022-08-01T18:38:38;1.80;;;1.70;;
72053;SDS011;59918;51.280;7.950;2022-08-01T18:41:03;4.20;;;2.13;;
72053;SDS011;59918;51.280;7.950;2022-08-01T18:43:28;2.10;;;1.95;;
72053;SDS011;59918;51.280;7.950;2022-08-01T18:45:54;1.88;;;1.77;;
72053;SDS011;59918;51.280;7.950;2022-08-01T18:48:19;1.85;;;1.70;;
72053;SDS011;59918;51.280;7.950;2022-08-01T18:50:44;3.35;;;1.95;;
72053;SDS011;59918;51.280;7.950;2022-08-01T18:53:09;2.92;;;2.50;;
72053;SDS011;59918;51.280;7.950;2022-08-01T18:55:35;3.55;;;2.13;;
72053;SDS011;59918;51.280;7.950;2022-08-01T18:58:00;2.10;;;1.95;;
72053;SDS011;59918;51.280;7.950;2022-08-01T19:00:25;1.77;;;1.67;;
72053;SDS011;59918;51.280;7.950;2022-08-01T19:02:50;1.95;;;1.48;;
72053;SDS011;59918;51.280;7.950;2022-08-01T19:05:16;1.45;;;1.35;;
72053;SDS011;59918;51.280;7.950;2022-08-01T19:07:41;2.05;;;1.80;;
72053;SDS011;59918;51.280;7.950;2022-08-01T19:10:06;4.85;;;1.65;;
72053;SDS011;59918;51.280;7.950;2022-08-01T19:12:32;1.67;;;1.58;;
72053;SDS011;59918;51.280;7.950;2022-08-01T19:14:57;2.28;;;1.70;;
72053;SDS011;59918;51.280;7.950;2022-08-01T19:17:22;2.42;;;1.83;;
72053;SDS011;59918;51.280;7.950;2022-08-01T19:19:48;2.33;;;1.80;;
72053;SDS011;59918;51.280;7.950;2022-08-01T19:22:19;2.03;;;1.93;;
72053;SDS011;59918;51.280;7.950;2022-08-01T19:24:44;4.88;;;1.80;;
72053;SDS011;59918;51.280;7.950;2022-08-01T19:27:09;3.95;;;1.90;;
72053;SDS011;59918;51.280;7.950;2022-08-01T19:29:38;3.28;;;1.98;;
72053;SDS011;59918;51.280;7.950;2022-08-01T19:32:04;3.45;;;2.00;;
72053;SDS011;59918;51.280;7.950;2022-08-01T19:34:32;2.13;;;2.03;;
72053;SDS011;59918;51.280;7.950;2022-08-01T19:36:59;1.85;;;1.75;;
72053;SDS011;59918;51.280;7.950;2022-08-01T19:39:24;3.28;;;2.00;;
72053;SDS011;59918;51.280;7.950;2022-08-01T19:41:50;2.45;;;2.10;;
72053;SDS011;59918;51.280;7.950;2022-08-01T19:44:18;2.08;;;1.98;;
72053;SDS011;59918;51.280;7.950;2022-08-01T19:46:45;4.50;;;1.98;;
72053;SDS011;59918;51.280;7.950;2022-08-01T19:49:11;2.38;;;1.88;;
72053;SDS011;59918;51.280;7.950;2022-08-01T19:51:39;3.00;;;2.00;;
72053;SDS011;59918;51.280;7.950;2022-08-01T19:54:09;2.30;;;2.10;;
72053;SDS011;59918;51.280;7.950;2022-08-01T19:56:36;5.28;;;2.05;;
72053;SDS011;59918;51.280;7.950;2022-08-01T19:59:03;7.47;;;2.25;;
72053;SDS011;59918;51.280;7.950;2022-08-01T20:01:31;2.75;;;2.10;;
72053;SDS011;59918;51.280;7.950;2022-08-01T20:03:57;4.32;;;2.13;;
72053;SDS011;59918;51.280;7.950;2022-08-01T20:06:27;2.78;;;2.33;;
72053;SDS011;59918;51.280;7.950;2022-08-01T20:08:53;2.80;;;2.50;;
72053;SDS011;59918;51.280;7.950;2022-08-01T20:11:18;3.90;;;2.03;;
72053;SDS011;59918;51.280;7.950;2022-08-01T20:13:45;2.67;;;2.33;;
72053;SDS011;59918;51.280;7.950;2022-08-01T20:16:13;4.53;;;2.20;;
72053;SDS011;59918;51.280;7.950;2022-08-01T20:18:39;3.17;;;2.60;;
72053;SDS011;59918;51.280;7.950;2022-08-01T20:21:04;5.32;;;2.83;;
72053;SDS011;59918;51.280;7.950;2022-08-01T20:23:30;3.03;;;2.78;;
72053;SDS011;59918;51.280;7.950;2022-08-01T20:25:59;6.07;;;3.10;;
72053;SDS011;59918;51.280;7.950;2022-08-01T20:28:25;4.88;;;2.92;;
72053;SDS011;59918;51.280;7.950;2022-08-01T20:30:53;3.00;;;2.67;;
72053;SDS011;59918;51.280;7.950;2022-08-01T20:33:20;4.80;;;3.38;;
72053;SDS011;59918;51.280;7.950;2022-08-01T20:35:46;4.53;;;3.38;;
72053;SDS011;59918;51.280;7.950;2022-08-01T20:38:11;3.78;;;2.90;;
72053;SDS011;59918;51.280;7.950;2022-08-01T20:40:37;2.75;;;2.45;;
72053;SDS011;59918;51.280;7.950;2022-08-01T20:43:03;3.38;;;2.70;;
72053;SDS011;59918;51.280;7.950;2022-08-01T20:45:29;3.92;;;2.60;;
72053;SDS011;59918;51.280;7.950;2022-08-01T20:47:54;2.53;;;2.33;;
72053;SDS011;59918;51.280;7.950;2022-08-01T20:50:20;3.50;;;2.67;;
72053;SDS011;59918;51.280;7.950;2022-08-01T20:52:46;3.45;;;2.80;;
72053;SDS011;59918;51.280;7.950;2022-08-01T20:55:12;2.88;;;2.60;;
72053;SDS011;59918;51.280;7.950;2022-08-01T20:57:40;2.55;;;2.40;;
72053;SDS011;59918;51.280;7.950;2022-08-01T21:00:07;3.15;;;2.80;;
72053;SDS011;59918;51.280;7.950;2022-08-01T21:02:52;2.78;;;2.58;;
72053;SDS011;59918;51.280;7.950;2022-08-01T21:05:40;3.10;;;2.85;;
72053;SDS011;59918;51.280;7.950;2022-08-01T21:08:16;3.47;;;3.13;;
72053;SDS011;59918;51.280;7.950;2022-08-01T21:10:55;2.92;;;2.72;;
72053;SDS011;59918;51.280;7.950;2022-08-01T21:13:27;3.22;;;2.95;;
72053;SDS011;59918;51.280;7.950;2022-08-01T21:16:06;3.00;;;2.70;;
72053;SDS011;59918;51.280;7.950;2022-08-01T21:18:37;9.52;;;3.53;;
72053;SDS011;59918;51.280;7.950;2022-08-01T21:21:13;3.22;;;2.92;;
72053;SDS011;59918;51.280;7.950;2022-08-01T21:26:20;3.85;;;3.00;;
72053;SDS011;59918;51.280;7.950;2022-08-01T21:28:46;3.15;;;2.95;;
72053;SDS011;59918;51.280;7.950;2022-08-01T21:31:13;4.00;;;2.90;;
72053;SDS011;59918;51.280;7.950;2022-08-01T21:33:38;4.80;;;2.97;;
72053;SDS011;59918;51.280;7.950;2022-08-01T21:36:05;3.53;;;3.22;;
72053;SDS011;59918;51.280;7.950;2022-08-01T21:38:32;3.17;;;2.92;;
72053;SDS011;59918;51.280;7.950;2022-08-01T21:41:01;3.00;;;2.80;;
72053;SDS011;59918;51.280;7.950;2022-08-01T21:43:28;3.25;;;2.95;;
72053;SDS011;59918;51.280;7.950;2022-08-01T21:45:56;5.70;;;3.30;;
72053;SDS011;59918;51.280;7.950;2022-08-01T21:48:23;5.88;;;4.30;;
72053;SDS011;59918;51.280;7.950;2022-08-01T21:50:55;3.08;;;2.83;;
72053;SDS011;59918;51.280;7.950;2022-08-01T21:53:29;3.58;;;3.22;;
72053;SDS011;59918;51.280;7.950;2022-08-01T22:04:25;3.35;;;3.10;;
72053;SDS011;59918;51.280;7.950;2022-08-01T22:07:15;3.92;;;3.63;;
72053;SDS011;59918;51.280;7.950;2022-08-01T22:09:47;3.33;;;3.13;;
72053;SDS011;59918;51.280;7.950;2022-08-01T22:12:13;3.30;;;3.10;;
72053;SDS011;59918;51.280;7.950;2022-08-01T22:14:41;3.45;;;2.95;;
72053;SDS011;59918;51.280;7.950;2022-08-01T22:17:09;4.32;;;3.63;;
72053;SDS011;59918;51.280;7.950;2022-08-01T22:19:38;3.50;;;3.30;;
72053;SDS011;59918;51.280;7.950;2022-08-01T22:22:04;3.95;;;3.55;;
72053;SDS011;59918;51.280;7.950;2022-08-01T22:24:31;8.13;;;4.00;;
72053;SDS011;59918;51.280;7.950;2022-08-01T22:27:00;5.00;;;3.85;;